createdAt,value
2022-09-21T00:01:49.891Z,6.20
2022-09-21T00:04:47.698Z,6.54
2022-09-21T00:07:15.911Z,6.37
2022-09-21T00:09:44.108Z,6.46
2022-09-21T00:12:12.560Z,6.41
2022-09-21T00:14:40.766Z,6.38
2022-09-21T00:17:10.720Z,6.38
2022-09-21T00:19:38.923Z,6.30
2022-09-21T00:22:07.388Z,6.16
2022-09-21T00:24:35.825Z,6.25
2022-09-21T00:27:04.013Z,6.10
2022-09-21T00:29:32.219Z,6.20
2022-09-21T00:32:00.503Z,6.11
2022-09-21T00:34:30.331Z,6.15
2022-09-21T00:36:58.881Z,6.17
2022-09-21T00:39:27.154Z,4.67
2022-09-21T00:41:55.304Z,6.08
2022-09-21T00:44:31.801Z,5.93
2022-09-21T00:47:07.936Z,5.87
2022-09-21T00:49:40.173Z,5.90
2022-09-21T00:52:09.432Z,5.91
2022-09-21T00:54:43.518Z,5.91
2022-09-21T00:57:12.454Z,5.92
2022-09-21T00:59:41.725Z,5.87
2022-09-21T01:02:10.025Z,5.64
2022-09-21T01:04:40.907Z,5.66
2022-09-21T01:07:14.694Z,5.72
2022-09-21T01:09:44.850Z,5.64
2022-09-21T01:12:30.360Z,5.67
2022-09-21T01:15:20.982Z,5.70
2022-09-21T01:18:00.301Z,5.75
2022-09-21T01:21:30.231Z,5.67
2022-09-21T01:24:17.942Z,5.77
2022-09-21T01:27:13.908Z,5.74
2022-09-21T01:29:50.337Z,5.68
2022-09-21T01:32:24.064Z,5.66
2022-09-21T01:34:57.359Z,5.61
2022-09-21T01:37:34.050Z,5.47
2022-09-21T01:40:11.438Z,5.52
2022-09-21T01:42:42.348Z,5.47
2022-09-21T01:45:17.290Z,5.46
2022-09-21T01:47:49.918Z,5.53
2022-09-21T01:50:26.976Z,5.51
2022-09-21T01:53:02.272Z,5.64
2022-09-21T01:55:35.980Z,5.69
2022-09-21T01:58:13.106Z,5.66
2022-09-21T02:00:46.042Z,5.49
2022-09-21T02:03:20.848Z,5.47
2022-09-21T02:05:49.153Z,5.49
2022-09-21T02:08:18.065Z,5.42
2022-09-21T02:10:50.998Z,5.42
2022-09-21T02:13:20.858Z,5.32
2022-09-21T02:16:21.015Z,5.22
2022-09-21T02:19:07.645Z,5.31
2022-09-21T02:21:58.501Z,5.26
2022-09-21T02:24:39.307Z,5.62
2022-09-21T02:27:15.044Z,5.05
2022-09-21T02:29:51.673Z,4.99
2022-09-21T02:32:37.235Z,5.07
2022-09-21T02:35:15.025Z,5.18
2022-09-21T02:37:49.047Z,4.94
2022-09-21T02:40:27.575Z,5.13
2022-09-21T02:43:00.933Z,5.10
2022-09-21T02:45:34.746Z,5.07
2022-09-21T02:48:09.104Z,4.98
2022-09-21T02:50:43.804Z,5.07
2022-09-21T02:53:14.752Z,5.08
2022-09-21T02:55:45.327Z,4.99
2022-09-21T02:58:17.916Z,5.09
2022-09-21T03:00:46.401Z,5.03
2022-09-21T03:03:22.341Z,5.01
2022-09-21T03:05:54.292Z,5.10
2022-09-21T03:08:23.271Z,4.96
2022-09-21T03:10:51.956Z,4.94
2022-09-21T03:13:20.184Z,5.02
2022-09-21T03:15:49.068Z,4.92
2022-09-21T03:18:17.395Z,4.87
2022-09-21T03:20:47.114Z,4.90
2022-09-21T03:23:15.766Z,4.97
2022-09-21T03:25:46.120Z,4.98
2022-09-21T03:28:15.082Z,4.99
2022-09-21T03:30:44.401Z,5.01
2022-09-21T03:33:13.721Z,4.52
2022-09-21T03:35:42.143Z,4.89
2022-09-21T03:38:11.704Z,5.02
2022-09-21T03:40:39.928Z,5.07
2022-09-21T03:43:08.214Z,5.15
2022-09-21T03:45:37.995Z,4.98
2022-09-21T03:48:06.191Z,5.10
2022-09-21T03:50:34.564Z,4.80
2022-09-21T03:53:02.751Z,4.84
2022-09-21T03:55:33.213Z,5.05
2022-09-21T03:58:01.472Z,4.97
2022-09-21T04:00:30.947Z,5.04
2022-09-21T04:03:00.076Z,5.03
2022-09-21T04:05:28.791Z,5.01
2022-09-21T04:07:57.695Z,4.87
2022-09-21T04:10:29.256Z,4.87
2022-09-21T04:13:02.158Z,4.97
2022-09-21T04:15:31.351Z,4.99
2022-09-21T04:17:59.690Z,4.82
2022-09-21T04:20:28.194Z,4.82
2022-09-21T04:22:56.420Z,4.91
2022-09-21T04:25:24.699Z,4.86
2022-09-21T04:27:52.995Z,4.82
2022-09-21T04:30:22.570Z,4.82
2022-09-21T04:32:50.731Z,4.79
2022-09-21T04:35:18.968Z,4.74
2022-09-21T04:37:47.159Z,4.85
2022-09-21T04:40:15.835Z,4.74
2022-09-21T04:42:44.137Z,4.80
2022-09-21T04:45:12.949Z,5.49
2022-09-21T04:47:42.612Z,4.73
2022-09-21T04:50:11.338Z,4.80
2022-09-21T04:52:40.084Z,4.69
2022-09-21T04:55:09.607Z,4.76
2022-09-21T04:57:37.944Z,4.73
2022-09-21T05:00:07.854Z,4.53
2022-09-21T05:02:36.071Z,4.64
2022-09-21T05:05:06.807Z,4.73
2022-09-21T05:07:34.971Z,4.55
2022-09-21T05:10:05.233Z,4.58
2022-09-21T05:12:38.526Z,4.31
2022-09-21T05:15:09.759Z,4.40
2022-09-21T05:17:38.096Z,4.13
2022-09-21T05:20:09.026Z,4.30
2022-09-21T05:22:37.375Z,4.42
2022-09-21T05:25:07.041Z,4.45
2022-09-21T05:27:35.223Z,4.41
2022-09-21T05:30:04.462Z,4.60
2022-09-21T05:32:46.153Z,4.40
2022-09-21T05:35:27.430Z,4.65
2022-09-21T05:38:02.464Z,4.43
2022-09-21T05:40:31.568Z,4.41
2022-09-21T05:43:00.713Z,4.56
2022-09-21T05:45:29.964Z,4.57
2022-09-21T05:48:13.155Z,4.55
2022-09-21T05:51:04.432Z,4.33
2022-09-21T05:53:50.541Z,4.69
2022-09-21T05:56:42.650Z,4.61
2022-09-21T05:59:36.780Z,4.75
2022-09-21T06:02:17.924Z,4.72
2022-09-21T06:04:47.789Z,4.81
2022-09-21T06:07:17.359Z,5.27
2022-09-21T06:09:45.577Z,4.73
2022-09-21T06:12:13.816Z,4.90
2022-09-21T06:14:42.437Z,4.86
2022-09-21T06:17:10.726Z,4.91
2022-09-21T06:19:39.028Z,4.86
2022-09-21T06:22:07.205Z,5.00
2022-09-21T06:24:36.778Z,4.71
2022-09-21T06:27:05.320Z,4.53
2022-09-21T06:29:33.499Z,4.39
2022-09-21T06:32:03.468Z,4.41
2022-09-21T06:34:32.016Z,4.50
2022-09-21T06:37:00.192Z,4.62
2022-09-21T06:39:28.739Z,4.69
2022-09-21T06:41:59.482Z,4.81
2022-09-21T06:44:29.842Z,4.92
2022-09-21T06:46:58.021Z,4.97
2022-09-21T06:49:28.659Z,5.18
2022-09-21T06:51:57.127Z,5.36
2022-09-21T06:54:25.615Z,5.61
2022-09-21T06:56:56.841Z,5.66
2022-09-21T06:59:29.422Z,5.80
2022-09-21T07:01:58.558Z,5.99
2022-09-21T07:04:29.431Z,6.08
2022-09-21T07:06:57.945Z,6.18
2022-09-21T07:12:15.074Z,6.47
2022-09-21T07:14:45.627Z,6.55
2022-09-21T07:17:16.005Z,6.39
2022-09-21T07:19:44.385Z,6.56
2022-09-21T07:22:12.582Z,7.31
2022-09-21T07:24:41.099Z,6.93
2022-09-21T07:27:09.673Z,7.05
2022-09-21T07:29:37.852Z,7.27
2022-09-21T07:32:07.482Z,7.13
2022-09-21T07:34:37.875Z,7.25
2022-09-21T07:37:06.397Z,7.55
2022-09-21T07:39:35.523Z,7.88
2022-09-21T07:42:03.747Z,8.00
2022-09-21T07:44:31.908Z,8.32
2022-09-21T07:47:00.336Z,7.36
2022-09-21T07:49:32.115Z,8.48
2022-09-21T07:52:04.473Z,8.80
2022-09-21T07:54:34.511Z,9.02
2022-09-21T07:57:20.278Z,9.11
2022-09-21T07:59:48.582Z,9.42
2022-09-21T08:02:16.788Z,9.58
2022-09-21T08:04:46.707Z,9.85
2022-09-21T08:07:14.952Z,10.11
2022-09-21T08:09:43.152Z,9.32
2022-09-21T08:12:12.129Z,10.45
2022-09-21T08:14:40.652Z,11.38
2022-09-21T08:17:08.987Z,10.82
2022-09-21T08:19:37.157Z,10.92
2022-09-21T08:22:07.221Z,11.04
2022-09-21T08:24:36.743Z,11.17
2022-09-21T08:27:05.498Z,11.14
2022-09-21T08:29:33.681Z,11.29
2022-09-21T08:32:02.792Z,11.47
2022-09-21T08:34:31.009Z,11.73
2022-09-21T08:36:59.163Z,11.69
2022-09-21T08:39:29.084Z,11.88
2022-09-21T08:42:14.518Z,12.01
2022-09-21T08:44:45.988Z,12.18
2022-09-21T08:47:18.553Z,11.80
2022-09-21T08:49:52.850Z,12.44
2022-09-21T08:52:22.856Z,12.70
2022-09-21T08:54:57.926Z,12.66
2022-09-21T08:57:31.093Z,12.73
2022-09-21T09:00:01.883Z,12.81
2022-09-21T09:02:51.607Z,12.93
2022-09-21T09:05:38.475Z,13.08
2022-09-21T09:08:26.630Z,12.45
2022-09-21T09:11:12.478Z,13.19
2022-09-21T09:14:17.070Z,13.38
2022-09-21T09:16:54.889Z,13.43
2022-09-21T09:19:29.234Z,13.49
2022-09-21T09:21:58.120Z,13.48
2022-09-21T09:24:36.703Z,13.45
2022-09-21T09:27:15.309Z,13.52
2022-09-21T09:29:52.717Z,13.32
2022-09-21T09:32:25.560Z,13.70
2022-09-21T09:35:00.398Z,13.98
2022-09-21T09:37:35.560Z,14.08
2022-09-21T09:40:04.574Z,13.98
2022-09-21T09:42:52.821Z,14.09
2022-09-21T09:45:43.771Z,14.22
2022-09-21T09:48:39.341Z,14.19
2022-09-21T09:51:13.114Z,13.45
2022-09-21T09:53:41.657Z,14.24
2022-09-21T09:56:11.987Z,13.81
2022-09-21T09:58:49.620Z,13.89
2022-09-21T10:01:38.577Z,14.44
2022-09-21T10:04:12.027Z,14.56
2022-09-21T10:06:46.053Z,13.60
2022-09-21T10:09:26.809Z,14.72
2022-09-21T10:12:00.135Z,14.82
2022-09-21T10:14:34.660Z,14.87
2022-09-21T10:17:07.900Z,14.94
2022-09-21T10:19:38.163Z,15.33
2022-09-21T10:22:06.862Z,15.42
2022-09-21T10:24:38.951Z,15.30
2022-09-21T10:27:14.532Z,15.42
2022-09-21T10:29:46.737Z,15.53
2022-09-21T10:32:26.089Z,15.37
2022-09-21T10:35:22.279Z,15.15
2022-09-21T10:38:10.030Z,14.61
2022-09-21T10:40:39.817Z,14.65
2022-09-21T10:43:24.209Z,14.58
2022-09-21T10:45:58.622Z,14.73
2022-09-21T10:48:28.695Z,14.74
2022-09-21T10:50:58.152Z,15.01
2022-09-21T10:53:29.848Z,15.17
2022-09-21T10:56:18.365Z,15.07
2022-09-21T10:59:12.385Z,15.54
2022-09-21T11:01:46.926Z,15.61
2022-09-21T11:04:23.951Z,15.86
2022-09-21T11:06:56.436Z,15.64
2022-09-21T11:09:31.047Z,15.22
2022-09-21T11:12:07.496Z,14.92
2022-09-21T11:14:47.117Z,14.91
2022-09-21T11:17:27.183Z,14.93
2022-09-21T11:20:09.740Z,14.73
2022-09-21T11:22:46.854Z,14.67
2022-09-21T11:25:32.420Z,14.44
2022-09-21T11:28:13.382Z,14.60
2022-09-21T11:31:19.821Z,14.90
2022-09-21T11:34:25.065Z,14.60
2022-09-21T11:37:08.501Z,15.01
2022-09-21T11:39:54.069Z,15.66
2022-09-21T11:42:49.977Z,15.39
2022-09-21T11:45:50.259Z,14.82
2022-09-21T11:48:33.937Z,15.75
2022-09-21T11:51:17.310Z,15.97
2022-09-21T11:54:13.282Z,16.01
2022-09-21T11:56:50.300Z,16.25
2022-09-21T11:59:40.172Z,16.74
2022-09-21T12:02:52.234Z,16.91
2022-09-21T12:05:35.470Z,17.36
2022-09-21T12:08:35.782Z,17.69
2022-09-21T12:11:12.627Z,17.82
2022-09-21T12:13:51.824Z,17.92
2022-09-21T12:16:29.911Z,18.03
2022-09-21T12:19:09.588Z,18.20
2022-09-21T12:21:44.147Z,18.30
2022-09-21T12:24:21.962Z,18.70
2022-09-21T12:26:55.591Z,18.77
2022-09-21T12:29:28.557Z,18.81
2022-09-21T12:32:04.375Z,18.64
2022-09-21T12:34:42.692Z,19.04
2022-09-21T12:37:17.190Z,19.43
2022-09-21T12:39:53.130Z,19.44
2022-09-21T12:42:31.405Z,19.26
2022-09-21T12:45:05.151Z,19.68
2022-09-21T12:47:50.052Z,19.81
2022-09-21T12:50:25.182Z,19.92
2022-09-21T12:52:54.778Z,19.96
2022-09-21T12:55:44.469Z,19.86
2022-09-21T12:58:44.121Z,20.03
2022-09-21T13:01:30.978Z,20.32
2022-09-21T13:04:26.548Z,20.19
2022-09-21T13:07:32.798Z,20.05
2022-09-21T13:10:13.415Z,19.87
2022-09-21T13:12:46.738Z,19.79
2022-09-21T13:15:24.180Z,19.57
2022-09-21T13:18:01.097Z,18.92
2022-09-21T13:20:35.823Z,18.08
2022-09-21T13:23:04.748Z,17.74
2022-09-21T13:25:37.521Z,17.34
2022-09-21T13:28:24.140Z,17.28
2022-09-21T13:31:41.511Z,17.04
2022-09-21T13:34:30.230Z,17.28
2022-09-21T13:37:31.799Z,17.51
2022-09-21T13:40:42.449Z,18.05
2022-09-21T13:43:25.855Z,18.88
2022-09-21T13:45:59.081Z,19.27
2022-09-21T13:48:33.941Z,19.46
2022-09-21T13:51:08.702Z,19.98
2022-09-21T13:53:41.977Z,20.21
2022-09-21T13:56:22.824Z,20.01
2022-09-21T13:58:57.279Z,19.02
2022-09-21T14:01:52.469Z,18.94
2022-09-21T14:04:27.955Z,18.81
2022-09-21T14:07:08.018Z,19.01
2022-09-21T14:09:55.035Z,19.52
2022-09-21T14:12:26.908Z,19.61
2022-09-21T14:15:36.751Z,20.29
2022-09-21T14:18:47.581Z,20.59
2022-09-21T14:21:18.932Z,20.74
2022-09-21T14:24:21.173Z,21.32
2022-09-21T14:27:01.474Z,20.98
2022-09-21T14:29:40.596Z,20.11
2022-09-21T14:32:19.192Z,19.54
2022-09-21T14:34:49.718Z,18.85
2022-09-21T14:37:31.771Z,18.35
2022-09-21T14:40:05.833Z,17.89
2022-09-21T14:42:34.509Z,17.57
2022-09-21T14:45:04.506Z,17.41
2022-09-21T14:48:02.662Z,18.08
2022-09-21T14:50:36.079Z,18.36
2022-09-21T14:53:29.791Z,19.31
2022-09-21T14:56:21.942Z,20.08
2022-09-21T14:59:07.792Z,21.02
2022-09-21T15:01:42.068Z,20.94
2022-09-21T15:04:46.033Z,21.29
2022-09-21T15:07:57.767Z,21.51
2022-09-21T15:10:49.698Z,21.82
2022-09-21T15:13:45.744Z,22.23
2022-09-21T15:16:38.446Z,22.59
2022-09-21T15:19:17.358Z,21.86
2022-09-21T15:21:49.028Z,21.93
2022-09-21T15:24:31.773Z,22.11
2022-09-21T15:27:10.265Z,21.85
2022-09-21T15:29:40.194Z,22.58
2022-09-21T15:32:09.010Z,22.47
2022-09-21T15:34:37.541Z,22.39
2022-09-21T15:37:18.065Z,22.47
2022-09-21T15:39:46.289Z,21.69
2022-09-21T15:42:23.557Z,22.23
2022-09-21T15:45:06.059Z,22.72
2022-09-21T15:47:34.712Z,22.45
2022-09-21T15:50:03.247Z,22.15
2022-09-21T15:52:37.845Z,21.96
2022-09-21T15:55:14.929Z,21.66
2022-09-21T15:57:44.579Z,21.58
2022-09-21T16:00:24.258Z,20.71
2022-09-21T16:03:07.372Z,20.43
2022-09-21T16:06:02.353Z,20.61
2022-09-21T16:08:35.715Z,20.72
2022-09-21T16:11:17.059Z,20.75
2022-09-21T16:14:04.925Z,20.34
2022-09-21T16:16:33.405Z,20.11
2022-09-21T16:19:01.669Z,20.15
2022-09-21T16:21:33.621Z,19.94
2022-09-21T16:24:13.694Z,19.58
2022-09-21T16:26:42.653Z,19.64
2022-09-21T16:29:25.590Z,19.58
2022-09-21T16:32:31.704Z,19.50
2022-09-21T16:35:27.977Z,19.13
2022-09-21T16:37:57.542Z,18.91
2022-09-21T16:40:29.470Z,18.71
2022-09-21T16:42:58.884Z,18.58
2022-09-21T16:45:31.770Z,18.33
2022-09-21T16:48:00.478Z,17.95
2022-09-21T16:50:28.782Z,17.63
2022-09-21T16:53:02.930Z,17.41
2022-09-21T16:55:32.915Z,17.23
2022-09-21T16:58:01.243Z,16.93
2022-09-21T17:00:32.929Z,16.84
2022-09-21T17:03:02.263Z,16.37
2022-09-21T17:05:30.478Z,16.25
2022-09-21T17:08:00.397Z,16.03
2022-09-21T17:10:34.597Z,15.78
2022-09-21T17:13:04.438Z,15.71
2022-09-21T17:15:33.833Z,15.49
2022-09-21T17:18:02.184Z,15.30
2022-09-21T17:20:41.694Z,14.56
2022-09-21T17:23:10.824Z,14.97
2022-09-21T17:25:40.365Z,13.29
2022-09-21T17:28:16.206Z,14.62
2022-09-21T17:30:46.441Z,14.50
2022-09-21T17:33:15.155Z,14.36
2022-09-21T17:35:44.845Z,14.18
2022-09-21T17:38:14.662Z,14.09
2022-09-21T17:40:45.640Z,14.04
2022-09-21T17:43:35.542Z,13.66
2022-09-21T17:46:11.387Z,13.55
2022-09-21T17:48:41.681Z,13.47
2022-09-21T17:51:11.836Z,13.30
2022-09-21T17:53:41.688Z,13.08
2022-09-21T17:56:26.573Z,12.92
2022-09-21T17:59:02.091Z,12.78
2022-09-21T18:01:34.866Z,12.65
2022-09-21T18:04:08.699Z,12.48
2022-09-21T18:06:37.806Z,12.29
2022-09-21T18:09:07.720Z,12.17
2022-09-21T18:12:48.270Z,12.12
2022-09-21T18:15:24.007Z,11.97
2022-09-21T18:18:09.597Z,11.76
2022-09-21T18:20:51.149Z,11.76
2022-09-21T18:23:27.716Z,11.57
2022-09-21T18:25:57.897Z,11.45
2022-09-21T18:28:40.272Z,11.39
2022-09-21T18:31:42.056Z,11.24
2022-09-21T18:34:34.726Z,11.18
2022-09-21T18:37:13.121Z,11.04
2022-09-21T18:39:52.946Z,11.12
2022-09-21T18:42:40.143Z,10.82
2022-09-21T18:45:17.206Z,11.00
2022-09-21T18:47:59.369Z,10.76
2022-09-21T18:50:36.057Z,10.66
2022-09-21T18:53:15.918Z,10.50
2022-09-21T18:55:45.170Z,10.64
2022-09-21T18:58:13.836Z,10.24
2022-09-21T19:00:44.240Z,10.60
2022-09-21T19:03:18.158Z,10.35
2022-09-21T19:06:02.729Z,10.43
2022-09-21T19:08:43.449Z,10.39
2022-09-21T19:11:19.696Z,10.39
2022-09-21T19:13:56.090Z,10.55
2022-09-21T19:16:35.125Z,10.56
2022-09-21T19:19:18.985Z,10.43
2022-09-21T19:21:56.463Z,10.43
2022-09-21T19:24:32.929Z,10.42
2022-09-21T19:27:21.206Z,9.01
2022-09-21T19:30:01.645Z,10.41
2022-09-21T19:32:38.189Z,10.31
2022-09-21T19:35:23.385Z,10.26
2022-09-21T19:37:53.816Z,10.21
2022-09-21T19:40:26.953Z,10.38
2022-09-21T19:43:10.126Z,10.23
2022-09-21T19:45:50.363Z,10.38
2022-09-21T19:48:24.017Z,9.84
2022-09-21T19:50:57.191Z,10.08
2022-09-21T19:53:44.244Z,10.00
2022-09-21T19:56:45.185Z,10.10
2022-09-21T19:59:31.744Z,10.08
2022-09-21T20:02:28.108Z,9.96
2022-09-21T20:05:06.162Z,9.84
2022-09-21T20:07:45.171Z,9.90
2022-09-21T20:10:40.882Z,9.83
2022-09-21T20:13:21.831Z,9.70
2022-09-21T20:15:57.450Z,9.79
2022-09-21T20:18:32.387Z,9.79
2022-09-21T20:21:02.554Z,9.87
2022-09-21T20:23:32.236Z,9.92
2022-09-21T20:26:07.174Z,9.81
2022-09-21T20:28:36.111Z,9.74
2022-09-21T20:31:05.235Z,9.79
2022-09-21T20:33:33.461Z,9.72
2022-09-21T20:36:03.522Z,9.76
2022-09-21T20:38:32.191Z,9.73
2022-09-21T20:41:00.765Z,9.72
2022-09-21T20:43:32.485Z,9.58
2022-09-21T20:46:03.509Z,9.48
2022-09-21T20:48:31.797Z,9.40
2022-09-21T20:51:06.105Z,9.24
2022-09-21T20:53:34.975Z,8.81
2022-09-21T20:56:04.305Z,8.66
2022-09-21T20:58:35.374Z,8.88
2022-09-21T21:01:08.600Z,8.97
2022-09-21T21:03:36.978Z,9.07
2022-09-21T21:06:11.464Z,8.98
2022-09-21T21:08:39.675Z,8.99
2022-09-21T21:11:08.025Z,9.00
2022-09-21T21:13:36.273Z,8.88
2022-09-21T21:16:09.463Z,8.73
2022-09-21T21:18:41.029Z,8.62
2022-09-21T21:21:10.752Z,8.59
2022-09-21T21:23:53.205Z,7.83
2022-09-21T21:26:33.320Z,8.66
2022-09-21T21:29:06.880Z,8.59
2022-09-21T21:31:35.158Z,8.59
2022-09-21T21:34:03.359Z,8.63
2022-09-21T21:36:32.914Z,8.68
2022-09-21T21:39:01.152Z,8.60
2022-09-21T21:41:31.147Z,8.39
2022-09-21T21:43:59.469Z,8.28
2022-09-21T21:46:27.911Z,8.10
2022-09-21T21:48:56.361Z,8.01
2022-09-21T21:51:24.622Z,7.85
2022-09-21T21:53:54.127Z,8.69
2022-09-21T21:56:23.306Z,8.08
2022-09-21T21:58:54.113Z,8.04
2022-09-21T22:01:25.242Z,8.06
2022-09-21T22:04:03.323Z,8.14
2022-09-21T22:06:35.366Z,8.17
2022-09-21T22:09:07.404Z,8.08
2022-09-21T22:11:36.777Z,8.06
2022-09-21T22:14:06.996Z,7.93
2022-09-21T22:16:37.898Z,8.04
2022-09-21T22:19:08.254Z,7.94
2022-09-21T22:21:42.373Z,7.68
2022-09-21T22:24:12.311Z,7.49
2022-09-21T22:26:42.846Z,7.58
2022-09-21T22:29:14.199Z,7.25
2022-09-21T22:31:45.619Z,7.31
2022-09-21T22:34:14.861Z,7.23
2022-09-21T22:36:44.366Z,7.21
2022-09-21T22:39:14.148Z,7.09
2022-09-21T22:41:43.780Z,7.02
2022-09-21T22:44:12.500Z,6.98
2022-09-21T22:46:46.977Z,7.03
2022-09-21T22:49:15.127Z,6.91
2022-09-21T22:51:43.270Z,6.92
2022-09-21T22:54:12.803Z,6.94
2022-09-21T22:56:40.980Z,6.83
2022-09-21T22:59:09.611Z,6.73
2022-09-21T23:01:39.642Z,6.69
2022-09-21T23:04:10.548Z,6.79
2022-09-21T23:06:41.514Z,6.67
2022-09-21T23:09:16.519Z,6.76
2022-09-21T23:11:47.948Z,6.72
2022-09-21T23:14:17.648Z,6.52
2022-09-21T23:16:46.635Z,6.61
2022-09-21T23:19:16.404Z,6.43
2022-09-21T23:21:46.663Z,6.61
2022-09-21T23:24:16.686Z,6.52
2022-09-21T23:26:45.599Z,6.36
2022-09-21T23:29:16.011Z,6.29
2022-09-21T23:31:45.993Z,6.27
2022-09-21T23:34:16.631Z,6.31
2022-09-21T23:36:45.756Z,6.19
2022-09-21T23:39:16.763Z,5.67
2022-09-21T23:41:45.410Z,6.18
2022-09-21T23:44:13.869Z,6.15
2022-09-21T23:46:42.458Z,6.03
2022-09-21T23:49:11.243Z,5.65
2022-09-21T23:51:39.670Z,5.94
2022-09-21T23:54:10.974Z,5.95
2022-09-21T23:56:43.656Z,5.85
2022-09-21T23:59:11.874Z,5.90
